Harrisburg, New York
Current Conditions -  °F | °C
As of 4:26 PM on Saturday 22 Nov 2014 (Local Time) from KGTB Reporting Station
Overcast Overcast  
Wind Chill: -3°   Ceiling: 1800
Heat Index:   Visibility: 10mi
Dew Point:   Wind: 16mph
Humidity: 87%   Direction: 220°SW
Pressure: 29.96"   Gusts: NA
Location:  43.7565°N, 75.5938°W
Report Text: KGTB 222126Z AUTO 22014KT 10SM OVC018 02/00 A2996 RMK AO2 RAB2106E2121DZE2106B2121E2126
Loading
Personal Weather Stations






























Interactive Weather Map New forecast layout! Learn more

10-Day Weather Forecast

Advertisements
Track Severe Weather on mobile